Time;durP1;ratioP1;P1;durP2;ratioP2;P2;SDS_P1;SDS_P2;PMS_P1;PMS_P2;Temp;Humidity;BMP_temperature;BMP_pressure;BME280_temperature;BME280_humidity;BME280_pressure;Samples;Min_cycle;Max_cycle;Signal;HPM_P1;HPM_P2
2022/09/01 00:00:03;;;;;;;7.10;3.40;;;;;;;11.51;85.22;99302.41;2173051;81;20969;-80
2022/09/01 00:03:03;;;;;;;47.70;6.27;;;;;;;11.56;85.20;99296.39;2173361;81;20933;-81
2022/09/01 00:06:10;;;;;;;7.37;3.50;;;;;;;11.55;85.02;99299.86;2182649;81;21055;-80
2022/09/01 00:09:04;;;;;;;4.60;3.23;;;;;;;11.55;85.05;99297.25;2190000;81;20949;-80
2022/09/01 00:12:04;;;;;;;5.10;2.73;;;;;;;11.58;85.17;99297.30;2189950;81;20901;-80
2022/09/01 00:15:05;;;;;;;3.67;3.07;;;;;;;11.61;85.25;99292.53;2190151;81;20995;-80
2022/09/01 00:18:05;;;;;;;30.97;4.30;;;;;;;11.60;84.96;99298.63;2189938;81;21348;-81
2022/09/01 00:21:05;;;;;;;6.13;3.10;;;;;;;11.58;85.11;99289.88;2189941;81;20928;-80
2022/09/01 00:24:06;;;;;;;3.77;3.20;;;;;;;11.60;85.24;99296.89;2190098;81;21005;-80
2022/09/01 00:27:06;;;;;;;23.13;5.50;;;;;;;11.61;85.15;99295.16;2190938;81;21379;-83
2022/09/01 00:30:07;;;;;;;8.73;3.23;;;;;;;11.59;85.55;99292.94;2189972;81;20968;-80
2022/09/01 00:33:07;;;;;;;19.43;3.73;;;;;;;11.57;85.31;99290.30;2190374;81;20929;-81
2022/09/01 00:36:08;;;;;;;4.83;3.10;;;;;;;11.56;85.24;99291.59;2190080;81;21379;-81
2022/09/01 00:39:08;;;;;;;6.43;2.47;;;;;;;11.60;85.42;99294.70;2190296;81;20972;-81
2022/09/01 00:42:08;;;;;;;36.77;6.50;;;;;;;11.62;85.26;99294.30;2189770;81;20988;-82
2022/09/01 00:45:09;;;;;;;9.15;3.20;;;;;;;11.61;85.50;99296.45;2190210;81;20916;-80
2022/09/01 00:48:09;;;;;;;6.83;3.00;;;;;;;11.61;85.39;99297.34;2190164;81;20963;-81
2022/09/01 00:51:09;;;;;;;7.77;2.73;;;;;;;11.63;85.51;99292.13;2189816;81;20965;-80
2022/09/01 00:54:10;;;;;;;12.07;2.97;;;;;;;11.61;85.43;99287.31;2189791;81;20987;-81
2022/09/01 00:57:11;;;;;;;5.13;3.13;;;;;;;11.58;85.44;99285.95;2189982;81;21312;-80
2022/09/01 01:00:11;;;;;;;41.67;5.83;;;;;;;11.55;85.49;99288.09;2189888;81;20996;-80
2022/09/01 01:03:11;;;;;;;6.13;3.00;;;;;;;11.53;85.71;99285.01;2190075;81;20932;-80
2022/09/01 01:06:12;;;;;;;4.17;3.08;;;;;;;11.51;85.83;99290.22;2189720;81;21027;-80
2022/09/01 01:09:12;;;;;;;3.50;2.70;;;;;;;11.52;85.95;99292.40;2189757;81;20937;-80
2022/09/01 01:12:17;;;;;;;6.23;3.10;;;;;;;11.51;85.95;99290.64;2189565;81;20967;-80
2022/09/01 01:15:13;;;;;;;6.67;2.73;;;;;;;11.51;86.09;99287.59;2189678;81;20964;-80
2022/09/01 01:18:13;;;;;;;3.85;2.55;;;;;;;11.52;86.10;99289.78;2189470;81;21359;-80
2022/09/01 01:24:33;;;;;;;6.65;2.77;;;;;;;11.48;85.93;99284.51;2189808;81;20957;-81
2022/09/01 01:27:33;;;;;;;6.10;2.67;;;;;;;11.44;86.03;99293.16;2189890;81;21292;-82
2022/09/01 01:30:35;;;;;;;63.67;7.63;;;;;;;11.41;85.88;99295.73;2189593;81;20968;-82
2022/09/01 01:33:38;;;;;;;9.63;2.90;;;;;;;11.36;86.12;99291.28;2190183;81;20929;-81
2022/09/01 01:36:35;;;;;;;5.83;3.30;;;;;;;11.34;86.11;99290.38;2189802;81;21026;-82
2022/09/01 01:39:34;;;;;;;7.07;3.10;;;;;;;11.32;86.25;99290.36;2189836;81;20965;-81
2022/09/01 01:42:36;;;;;;;13.05;3.70;;;;;;;11.34;86.44;99283.42;2189890;81;20952;-81
2022/09/01 01:45:35;;;;;;;5.75;3.10;;;;;;;11.29;86.25;99291.62;2190052;81;20972;-81
2022/09/01 01:48:36;;;;;;;8.30;3.77;;;;;;;11.25;86.30;99287.59;2189841;81;20987;-81
2022/09/01 01:51:36;;;;;;;5.57;3.30;;;;;;;11.23;86.45;99278.42;2189687;81;20948;-81
2022/09/01 01:54:37;;;;;;;3.93;3.40;;;;;;;11.24;86.62;99286.71;2188963;81;20980;-81
2022/09/01 01:57:38;;;;;;;7.13;3.30;;;;;;;11.27;86.85;99284.18;2190184;81;20920;-81
2022/09/01 02:00:37;;;;;;;7.83;3.87;;;;;;;11.26;87.04;99273.67;2189946;81;21308;-81
2022/09/01 02:03:38;;;;;;;6.03;3.13;;;;;;;11.29;87.10;99277.24;2189735;81;20956;-81
2022/09/01 02:06:44;;;;;;;4.17;3.65;;;;;;;11.31;86.83;99282.06;2179957;81;20977;-81
2022/09/01 02:09:45;;;;;;;7.70;3.27;;;;;;;11.30;86.89;99280.31;2173359;81;20944;-82
2022/09/01 02:12:42;;;;;;;5.53;2.90;;;;;;;11.29;86.78;99278.55;2173505;81;20952;-82
2022/09/01 02:15:43;;;;;;;27.87;4.50;;;;;;;11.25;86.62;99276.70;2173540;82;20945;-82
2022/09/01 02:18:46;;;;;;;37.03;5.37;;;;;;;11.25;86.83;99284.55;2174285;81;20949;-81
2022/09/01 02:21:43;;;;;;;10.27;3.70;;;;;;;11.24;86.77;99281.91;2174191;81;20913;-83
2022/09/01 02:24:47;;;;;;;7.93;3.33;;;;;;;11.22;86.68;99279.70;2173905;81;20925;-83
2022/09/01 02:27:45;;;;;;;7.13;3.07;;;;;;;11.23;86.89;99280.16;2173520;81;20992;-83
2022/09/01 02:30:44;;;;;;;10.97;4.27;;;;;;;11.22;86.78;99280.58;2173262;82;20957;-83
2022/09/01 02:33:46;;;;;;;5.80;2.97;;;;;;;11.21;86.73;99280.12;2173375;81;20925;-83
2022/09/01 02:36:48;;;;;;;4.97;2.97;;;;;;;11.18;86.59;99274.85;2173302;81;21055;-82
2022/09/01 02:39:48;;;;;;;16.37;3.87;;;;;;;11.16;86.78;99273.95;2173692;81;20933;-82
2022/09/01 02:42:51;;;;;;;9.63;3.17;;;;;;;11.14;86.88;99276.96;2173338;81;21368;-82
2022/09/01 02:45:54;;;;;;;5.00;2.80;;;;;;;11.16;87.00;99278.75;2173522;81;20913;-81
2022/09/01 02:48:50;;;;;;;20.73;4.30;;;;;;;11.17;87.03;99277.89;2173724;82;20917;-82
2022/09/01 02:51:52;;;;;;;6.63;3.50;;;;;;;11.20;87.31;99280.10;2173474;81;20902;-83
2022/09/01 02:54:50;;;;;;;9.03;3.33;;;;;;;11.24;87.10;99281.48;2173107;81;20984;-82
2022/09/01 02:57:55;;;;;;;135.37;11.33;;;;;;;11.22;86.84;99278.39;2173390;81;20908;-83
2022/09/01 03:00:51;;;;;;;9.07;3.50;;;;;;;11.19;87.19;99277.92;2173308;81;20909;-83
2022/09/01 03:03:51;;;;;;;6.87;3.03;;;;;;;11.17;86.89;99279.63;2173752;82;20925;-83
2022/09/01 03:06:53;;;;;;;23.37;4.43;;;;;;;11.14;87.02;99275.23;2183017;81;21403;-83
2022/09/01 03:09:52;;;;;;;69.03;7.87;;;;;;;11.13;87.28;99276.08;2190052;81;20889;-82
2022/09/01 03:12:53;;;;;;;39.13;5.80;;;;;;;11.14;87.45;99271.31;2190544;81;20920;-82
2022/09/01 03:15:53;;;;;;;7.63;3.60;;;;;;;11.13;87.45;99266.06;2190202;81;20968;-82
2022/09/01 03:18:53;;;;;;;6.13;3.33;;;;;;;11.11;87.16;99271.69;2189974;81;21269;-82
2022/09/01 03:21:58;;;;;;;13.80;3.80;;;;;;;11.06;87.18;99271.61;2189646;81;20948;-82
2022/09/01 03:24:55;;;;;;;12.40;3.87;;;;;;;11.05;87.37;99268.98;2189704;81;20979;-82
2022/09/01 03:27:56;;;;;;;10.37;3.00;;;;;;;11.03;87.20;99268.07;2189484;81;21411;-82
2022/09/01 03:30:55;;;;;;;15.40;4.37;;;;;;;11.01;87.08;99271.09;2189342;81;21019;-82
2022/09/01 03:33:56;;;;;;;5.30;3.23;;;;;;;10.96;87.12;99267.52;2189007;81;21023;-83
2022/09/01 03:36:56;;;;;;;9.90;3.67;;;;;;;10.97;87.37;99262.74;2189516;81;21027;-83
2022/09/01 03:39:58;;;;;;;279.30;20.70;;;;;;;10.97;87.15;99263.63;2188973;81;20999;-81
2022/09/01 03:42:57;;;;;;;14.37;4.00;;;;;;;10.98;87.51;99264.50;2187274;81;21387;-83
2022/09/01 03:46:00;;;;;;;14.60;4.40;;;;;;;11.00;87.45;99265.41;2188443;81;21011;-81
2022/09/01 03:49:02;;;;;;;10.97;3.63;;;;;;;11.00;87.22;99266.71;2188104;81;20937;-81
2022/09/01 03:52:01;;;;;;;18.03;4.27;;;;;;;11.13;89.22;99263.45;2188769;81;20987;-82
2022/09/01 03:55:02;;;;;;;8.03;3.87;;;;;;;12.01;92.59;99262.18;2188145;81;21420;-84
2022/09/01 03:58:05;;;;;;;14.28;3.50;;;;;;;13.20;86.96;99262.19;2189169;81;20897;-82
2022/09/01 04:01:03;;;;;;;15.88;3.80;;;;;;;12.85;82.47;99260.95;2189048;81;21233;-83
2022/09/01 04:04:06;;;;;;;24.25;4.62;;;;;;;12.36;82.27;99268.30;2188800;81;20980;-83
2022/09/01 04:07:03;;;;;;;10.03;3.22;;;;;;;12.05;82.65;99269.20;2178185;81;21016;-84
2022/09/01 04:10:03;;;;;;;7.22;3.02;;;;;;;11.82;82.84;99269.34;2170948;82;20992;-83
2022/09/01 04:13:04;;;;;;;11.27;3.40;;;;;;;11.67;83.36;99274.32;2171412;81;21008;-83
2022/09/01 04:16:09;;;;;;;7.70;3.10;;;;;;;11.57;83.80;99273.73;2171448;81;21400;-83
2022/09/01 04:19:19;;;;;;;46.33;7.03;;;;;;;11.46;84.14;99279.69;2172135;82;20960;-82
2022/09/01 04:22:22;;;;;;;6.03;3.20;;;;;;;11.41;84.69;99277.43;2171788;81;20964;-82
2022/09/01 04:25:22;;;;;;;11.67;3.10;;;;;;;11.39;84.99;99284.80;2172064;81;20945;-81
2022/09/01 04:28:23;;;;;;;8.58;3.45;;;;;;;11.38;85.24;99290.45;2171305;81;21326;-81
2022/09/01 04:31:25;;;;;;;23.10;4.97;;;;;;;11.38;85.40;99283.92;2172103;81;21284;-81
2022/09/01 04:34:25;;;;;;;31.02;4.53;;;;;;;11.40;85.77;99286.13;2171089;81;21368;-81
2022/09/01 04:37:24;;;;;;;7.63;3.07;;;;;;;11.44;85.84;99291.86;2170840;81;21081;-81
2022/09/01 04:40:26;;;;;;;6.97;3.10;;;;;;;11.51;85.98;99289.34;2171304;81;21243;-81
2022/09/01 04:43:25;;;;;;;7.20;3.00;;;;;;;11.56;85.97;99292.89;2171006;81;20952;-83
2022/09/01 04:46:30;;;;;;;10.68;3.35;;;;;;;11.63;86.04;99280.36;2170885;82;20984;-81
2022/09/01 04:49:32;;;;;;;18.77;3.73;;;;;;;11.71;86.90;99285.27;2171868;81;20952;-81
2022/09/01 04:52:30;;;;;;;11.60;3.67;;;;;;;13.22;92.22;99281.44;2171583;81;21972;-81
2022/09/01 04:55:30;;;;;;;4.90;3.08;;;;;;;14.60;87.82;99281.36;2172289;81;21130;-85
2022/09/01 04:58:31;;;;;;;5.83;2.80;;;;;;;14.79;79.32;99278.81;2173063;81;21281;-82
2022/09/01 05:01:41;;;;;;;5.05;2.80;;;;;;;13.96;80.58;99281.08;2173372;81;20968;-83
2022/09/01 05:04:32;;;;;;;4.85;3.15;;;;;;;13.85;80.51;99280.11;2172675;82;20969;-83
2022/09/01 05:07:32;;;;;;;4.97;3.08;;;;;;;13.76;82.03;99279.19;2181934;81;21067;-83
2022/09/01 05:10:35;;;;;;;7.10;3.20;;;;;;;13.98;82.91;99270.16;2187756;81;20995;-83
2022/09/01 05:13:33;;;;;;;105.67;10.10;;;;;;;14.75;81.71;99269.16;2188602;81;20971;-82
2022/09/01 05:16:33;;;;;;;178.65;14.00;;;;;;;15.28;79.72;99275.34;2188105;81;20963;-77
2022/09/01 05:19:33;;;;;;;15.45;3.42;;;;;;;15.67;78.11;99272.73;2188493;81;20952;-83
2022/09/01 05:22:34;;;;;;;13.55;4.05;;;;;;;15.66;74.89;99279.76;2188803;81;21434;-85
2022/09/01 05:25:35;;;;;;;13.80;3.75;;;;;;;14.93;74.16;99278.39;2187738;81;20963;-85
2022/09/01 05:28:34;;;;;;;6.58;2.77;;;;;;;14.62;77.34;99282.68;2187355;81;21011;-86
2022/09/01 05:31:36;;;;;;;5.50;3.10;;;;;;;14.49;75.02;99283.52;2187361;81;20948;-84
2022/09/01 05:34:37;;;;;;;5.55;3.08;;;;;;;14.07;77.99;99275.89;2187325;81;21581;-84
2022/09/01 05:37:40;;;;;;;12.13;3.58;;;;;;;14.31;76.15;99284.30;2187277;81;21015;-83
2022/09/01 05:40:40;;;;;;;7.87;3.25;;;;;;;14.05;77.65;99283.31;2188107;81;20979;-85
2022/09/01 05:43:44;;;;;;;7.90;3.50;;;;;;;13.94;78.17;99278.89;2188812;81;21365;-85
2022/09/01 05:46:42;;;;;;;7.47;2.70;;;;;;;13.80;78.08;99281.84;2188090;81;20995;-85
2022/09/01 05:49:40;;;;;;;5.08;2.80;;;;;;;13.75;79.17;99278.31;2188115;81;20992;-84
2022/09/01 05:52:46;;;;;;;5.60;2.90;;;;;;;13.73;79.25;99280.05;2187393;81;20968;-85
2022/09/01 05:55:42;;;;;;;10.38;3.80;;;;;;;13.89;79.48;99274.05;2186736;81;20987;-78
2022/09/01 05:58:44;;;;;;;4.03;2.60;;;;;;;13.84;78.87;99273.11;2184478;81;21970;-77
2022/09/01 06:01:42;;;;;;;9.85;2.85;;;;;;;13.84;79.86;99274.42;2186178;81;20975;-82
2022/09/01 06:04:42;;;;;;;5.17;2.50;;;;;;;13.94;78.58;99278.89;2187907;81;20947;-83
2022/09/01 06:07:43;;;;;;;10.82;2.80;;;;;;;13.95;78.75;99281.08;2186760;81;21035;-84
2022/09/01 06:10:44;;;;;;;14.10;3.35;;;;;;;14.10;79.08;99271.09;2187581;81;20972;-85
2022/09/01 06:13:46;;;;;;;5.53;2.25;;;;;;;14.28;78.24;99282.98;2187468;81;21035;-85
2022/09/01 06:16:46;;;;;;;8.35;2.60;;;;;;;14.24;76.51;99281.20;2187405;81;20991;-85
2022/09/01 06:19:45;;;;;;;3.67;2.35;;;;;;;14.25;75.90;99286.91;2187904;81;20956;-83
2022/09/01 06:22:46;;;;;;;5.00;2.20;;;;;;;14.23;76.17;99285.58;2187389;81;20959;-83
2022/09/01 06:25:45;;;;;;;10.68;2.40;;;;;;;14.25;75.21;99282.53;2187664;81;20960;-82
2022/09/01 06:28:46;;;;;;;2.42;2.20;;;;;;;14.32;75.44;99290.88;2187352;81;21003;-81
2022/09/01 06:31:50;;;;;;;20.32;4.00;;;;;;;14.53;75.97;99288.78;2187770;81;20904;-81
2022/09/01 06:34:50;;;;;;;6.92;2.45;;;;;;;14.72;75.09;99291.46;2187182;81;21042;-82
2022/09/01 06:37:50;;;;;;;2.58;2.20;;;;;;;14.73;73.53;99289.27;2187843;81;21059;-83
2022/09/01 06:40:51;;;;;;;11.10;2.35;;;;;;;14.76;73.84;99293.26;2188419;81;20952;-81
2022/09/01 06:43:52;;;;;;;5.55;2.25;;;;;;;15.08;74.28;99295.50;2187304;81;21960;-84
2022/09/01 06:46:51;;;;;;;16.27;2.65;;;;;;;15.29;73.45;99303.83;2187745;81;20995;-83
2022/09/01 06:49:53;;;;;;;4.65;2.40;;;;;;;15.30;72.21;99310.41;2188187;81;20967;-82
2022/09/01 06:52:59;;;;;;;3.83;1.92;;;;;;;15.38;72.72;99302.95;2187875;81;21011;-82
2022/09/01 06:55:52;;;;;;;2.90;2.10;;;;;;;15.49;71.91;99306.45;2187916;81;21047;-81
2022/09/01 06:58:52;;;;;;;4.42;1.98;;;;;;;15.56;70.08;99308.20;2187693;81;21140;-82
2022/09/01 07:01:53;;;;;;;9.78;2.20;;;;;;;15.63;69.81;99306.08;2186997;81;20933;-82
2022/09/01 07:04:53;;;;;;;3.92;1.92;;;;;;;15.92;70.05;99309.53;2187372;81;21958;-83
2022/09/01 07:07:54;;;;;;;4.67;1.72;;;;;;;16.19;68.54;99312.53;2177795;81;21099;-83
2022/09/01 07:10:54;;;;;;;5.70;1.90;;;;;;;16.40;68.07;99314.20;2170915;81;21005;-83
2022/09/01 07:13:55;;;;;;;6.45;2.17;;;;;;;16.41;67.03;99313.32;2170214;81;21355;-83
2022/09/01 07:16:57;;;;;;;6.45;1.85;;;;;;;16.47;65.83;99313.73;2171860;81;20969;-82
2022/09/01 07:19:57;;;;;;;5.03;1.62;;;;;;;16.42;63.44;99319.02;2171248;81;20964;-82
2022/09/01 07:22:56;;;;;;;3.30;1.87;;;;;;;16.39;64.17;99316.41;2170977;81;20980;-82
2022/09/01 07:25:59;;;;;;;6.60;1.50;;;;;;;16.43;63.35;99318.59;2170128;81;21985;-81
2022/09/01 07:28:57;;;;;;;4.17;1.90;;;;;;;16.44;62.12;99319.89;2170073;81;21039;-83
2022/09/01 07:31:58;;;;;;;14.47;2.00;;;;;;;16.45;62.22;99316.82;2169721;81;21019;-82
2022/09/01 07:34:57;;;;;;;5.75;1.12;;;;;;;16.62;62.31;99328.64;2169913;81;21079;-83
2022/09/01 07:37:58;;;;;;;19.87;1.72;;;;;;;16.63;58.70;99338.30;2170016;82;21091;-83
2022/09/01 07:40:58;;;;;;;2.17;1.22;;;;;;;16.70;58.52;99329.50;2170609;81;20957;-83
2022/09/01 07:44:01;;;;;;;2.75;1.30;;;;;;;16.78;58.68;99332.53;2169982;81;21019;-81
2022/09/01 07:46:59;;;;;;;3.72;1.20;;;;;;;16.97;58.30;99323.20;2170366;81;20991;-82
2022/09/01 07:50:02;;;;;;;3.08;0.93;;;;;;;17.06;55.02;99327.97;2033316;87;21321;-84
2022/09/01 07:53:02;;;;;;;3.15;1.25;;;;;;;17.17;55.28;99324.81;2033424;87;21723;-83
2022/09/01 07:56:02;;;;;;;6.28;1.70;;;;;;;17.23;55.55;99321.26;2033234;87;21008;-80
2022/09/01 07:59:03;;;;;;;13.32;1.87;;;;;;;17.20;54.26;99326.11;2031794;87;20988;-82
2022/09/01 08:02:04;;;;;;;1.52;1.12;;;;;;;17.26;54.95;99328.27;2033336;87;21052;-83
2022/09/01 08:05:08;;;;;;;107.00;9.08;;;;;;;17.30;53.08;99333.96;2033387;87;21427;-81
2022/09/01 08:08:06;;;;;;;6.17;1.15;;;;;;;17.36;52.69;99329.98;2017732;87;21030;-81
2022/09/01 08:11:06;;;;;;;9.18;1.50;;;;;;;17.42;53.44;99331.26;2045157;87;21012;-83
2022/09/01 08:14:07;;;;;;;5.90;1.37;;;;;;;17.66;52.65;99327.53;2044848;87;21008;-83
2022/09/01 08:17:07;;;;;;;1.55;0.80;;;;;;;17.75;51.19;99334.09;2045002;87;20985;-83
2022/09/01 08:20:08;;;;;;;5.35;1.20;;;;;;;17.88;49.68;99336.16;2044817;87;20958;-82
2022/09/01 08:23:08;;;;;;;1.85;0.80;;;;;;;17.95;49.83;99332.13;2044678;87;21442;-83
2022/09/01 08:26:08;;;;;;;27.17;3.22;;;;;;;17.98;49.48;99336.50;2045694;87;20977;-83
2022/09/01 08:29:09;;;;;;;5.33;1.27;;;;;;;18.13;50.92;99338.53;2045358;87;21045;-83
2022/09/01 08:32:11;;;;;;;1.90;0.82;;;;;;;18.29;51.42;99331.80;2023627;87;21021;-83
2022/09/01 08:35:11;;;;;;;7.03;1.05;;;;;;;18.56;50.77;99325.30;2045736;87;21049;-83
2022/09/01 08:38:12;;;;;;;1.40;0.72;;;;;;;18.81;47.26;99332.05;2045114;87;21041;-81
2022/09/01 08:41:12;;;;;;;18.12;1.60;;;;;;;18.52;46.54;99330.20;2044586;87;20981;-81
2022/09/01 08:44:14;;;;;;;1.25;0.82;;;;;;;18.94;47.42;99334.95;2044705;87;21045;-82
2022/09/01 08:47:13;;;;;;;8.93;1.40;;;;;;;18.96;46.51;99335.80;2045596;87;21103;-82
2022/09/01 08:50:13;;;;;;;3.15;0.90;;;;;;;19.09;46.89;99332.56;2044778;87;21408;-80
2022/09/01 08:53:14;;;;;;;21.15;2.12;;;;;;;19.24;45.14;99334.98;2118580;82;21031;-79
2022/09/01 08:56:14;;;;;;;3.10;0.98;;;;;;;18.88;42.29;99333.71;2180537;82;21102;-85
2022/09/01 08:59:15;;;;;;;2.95;0.93;;;;;;;18.68;43.77;99320.76;2180780;81;20955;-80
2022/09/01 09:02:16;;;;;;;4.97;1.20;;;;;;;18.69;44.37;99342.78;2181193;81;21367;-82
2022/09/01 09:05:15;;;;;;;1.45;0.82;;;;;;;18.60;46.25;99326.56;2181748;82;20964;-83
2022/09/01 09:08:16;;;;;;;2.52;0.88;;;;;;;18.59;45.07;99325.26;2184927;81;21047;-81
2022/09/01 09:11:16;;;;;;;3.62;1.00;;;;;;;18.61;45.78;99319.09;2188793;81;20988;-83
2022/09/01 09:14:17;;;;;;;5.92;1.02;;;;;;;18.72;46.30;99320.27;2188217;81;21589;-84
2022/09/01 09:17:17;;;;;;;1.98;0.80;;;;;;;18.69;44.60;99321.63;2187953;81;20932;-83
2022/09/01 09:20:17;;;;;;;43.45;3.87;;;;;;;18.76;44.59;99325.94;2188823;81;21032;-84
2022/09/01 09:23:18;;;;;;;3.20;0.85;;;;;;;18.94;41.97;99323.49;2188865;81;21431;-84
2022/09/01 09:26:19;;;;;;;0.88;0.88;;;;;;;19.28;43.57;99328.73;2188746;81;21414;-84
2022/09/01 09:29:21;;;;;;;7.08;1.95;;;;;;;19.30;42.97;99323.42;2188053;81;21172;-83
2022/09/01 09:32:19;;;;;;;12.35;1.50;;;;;;;19.35;42.22;99322.90;2187414;81;21341;-83
2022/09/01 09:35:19;;;;;;;12.03;1.30;;;;;;;19.75;41.39;99319.16;2187912;81;21011;-83
2022/09/01 09:38:30;;;;;;;2.83;1.07;;;;;;;20.06;40.67;99319.95;2187468;81;21446;-82
2022/09/01 09:41:30;;;;;;;0.50;0.50;;;;;;;20.18;40.67;99311.77;2187598;81;21057;-83
2022/09/01 09:44:30;;;;;;;2.83;1.00;;;;;;;20.38;40.93;99315.35;2187565;81;21026;-82
2022/09/01 09:47:30;;;;;;;9.63;1.27;;;;;;;20.47;40.24;99312.55;2188398;81;20987;-80
2022/09/01 09:50:30;;;;;;;8.15;1.47;;;;;;;20.68;37.85;99324.90;2188110;81;21503;-83
2022/09/01 09:53:31;;;;;;;2.35;1.10;;;;;;;20.57;36.85;99316.75;2187841;81;20936;-82
2022/09/01 09:56:31;;;;;;;4.67;0.90;;;;;;;20.88;37.07;99311.23;2187419;81;20995;-83
2022/09/01 09:59:32;;;;;;;17.30;2.05;;;;;;;20.86;37.00;99312.17;2187136;81;20996;-81
2022/09/01 10:02:32;;;;;;;1.47;0.90;;;;;;;20.46;38.85;99313.45;2187485;81;21959;-80
2022/09/01 10:05:32;;;;;;;3.40;1.12;;;;;;;20.61;38.38;99310.02;2186834;81;21043;-81
2022/09/01 10:08:36;;;;;;;3.55;0.80;;;;;;;20.44;39.10;99312.61;2177668;81;21004;-82
2022/09/01 10:11:33;;;;;;;0.75;0.70;;;;;;;20.22;38.23;99309.48;2170541;82;21108;-82
2022/09/01 10:14:34;;;;;;;3.37;0.95;;;;;;;19.91;36.34;99311.81;2171114;81;20996;-83
2022/09/01 10:17:34;;;;;;;4.08;0.90;;;;;;;19.84;37.25;99316.80;2170743;81;21217;-80
2022/09/01 10:20:35;;;;;;;0.45;0.42;;;;;;;20.01;38.99;99305.02;2170853;82;20905;-80
2022/09/01 10:23:36;;;;;;;3.72;0.78;;;;;;;20.17;37.65;99304.72;2171413;81;20980;-82
2022/09/01 10:26:35;;;;;;;0.82;0.70;;;;;;;20.21;37.51;99307.28;2170503;81;20960;-82
2022/09/01 10:29:36;;;;;;;1.07;0.50;;;;;;;20.01;37.50;99306.34;2171132;81;21012;-82
2022/09/01 10:32:36;;;;;;;0.60;0.53;;;;;;;20.04;37.95;99314.69;2171099;81;21455;-82
2022/09/01 10:35:37;;;;;;;4.62;0.72;;;;;;;19.87;37.36;99303.50;2171632;81;21031;-83
2022/09/01 10:38:37;;;;;;;2.30;0.72;;;;;;;19.75;38.24;99311.66;2171764;81;21055;-84
2022/09/01 10:41:37;;;;;;;1.15;0.80;;;;;;;19.70;38.01;99315.27;2171756;81;20929;-81
2022/09/01 10:44:39;;;;;;;2.62;0.70;;;;;;;19.74;37.71;99314.77;2171425;82;21912;-83
2022/09/01 10:50:41;;;;;;;2.37;0.80;;;;;;;19.86;38.47;99315.00;2163215;82;21477;-82
2022/09/01 10:53:41;;;;;;;2.85;1.25;;;;;;;19.77;38.73;99316.48;2170935;81;20972;-83
2022/09/01 10:56:41;;;;;;;1.57;1.00;;;;;;;19.88;40.12;99305.24;2171230;81;20964;-81
2022/09/01 10:59:42;;;;;;;2.40;0.88;;;;;;;20.02;38.48;99305.44;2170926;81;20991;-83
2022/09/01 11:02:42;;;;;;;0.55;0.50;;;;;;;20.14;40.11;99305.66;2171132;81;20956;-83
2022/09/01 11:05:43;;;;;;;2.42;0.90;;;;;;;20.19;39.53;99305.11;2171728;81;20960;-82
2022/09/01 11:08:43;;;;;;;139.30;12.35;;;;;;;20.41;38.43;99300.74;2170285;82;21024;-83
2022/09/01 11:11:44;;;;;;;1.95;0.70;;;;;;;20.74;38.42;99303.12;2170555;82;21246;-82
2022/09/01 11:14:44;;;;;;;1.15;0.60;;;;;;;20.45;37.41;99303.75;2171024;81;21023;-84
2022/09/01 11:17:44;;;;;;;2.70;0.70;;;;;;;20.07;38.79;99304.03;2171349;81;21401;-84
2022/09/01 11:20:45;;;;;;;2.08;0.70;;;;;;;19.89;37.71;99295.07;2171445;81;21407;-83
2022/09/01 11:23:45;;;;;;;0.75;0.45;;;;;;;19.76;37.64;99293.55;2170527;82;21059;-82
2022/09/01 11:26:46;;;;;;;8.83;1.20;;;;;;;20.11;37.75;99295.12;2170620;82;21422;-81
2022/09/01 11:29:46;;;;;;;1.00;0.78;;;;;;;20.14;35.63;99298.16;2169829;82;21459;-82
2022/09/01 11:32:47;;;;;;;4.92;0.88;;;;;;;20.07;37.08;99296.08;2170553;81;21380;-81
2022/09/01 11:35:47;;;;;;;83.05;7.28;;;;;;;20.27;37.38;99287.28;2170445;81;21015;-81
2022/09/01 11:38:49;;;;;;;21.42;2.45;;;;;;;20.46;37.57;99285.61;2171632;82;21068;-81
2022/09/01 11:41:48;;;;;;;3.50;0.80;;;;;;;20.93;37.92;99279.28;2171329;81;21431;-83
2022/09/01 11:44:48;;;;;;;0.80;0.80;;;;;;;21.07;37.39;99288.25;2170337;81;20961;-84
2022/09/01 11:47:49;;;;;;;4.65;1.02;;;;;;;20.39;36.18;99293.23;2171193;82;20977;-83
2022/09/01 11:50:49;;;;;;;2.92;0.80;;;;;;;20.02;37.94;99284.24;2170392;81;20984;-82
2022/09/01 11:53:50;;;;;;;0.50;0.50;;;;;;;20.00;37.77;99282.08;2170410;81;21118;-83
2022/09/01 11:56:50;;;;;;;1.57;0.70;;;;;;;20.07;37.58;99272.23;2170701;81;21000;-83
2022/09/01 11:59:50;;;;;;;3.27;0.78;;;;;;;20.22;36.72;99276.34;2170958;81;21293;-83
2022/09/01 12:02:53;;;;;;;2.25;0.60;;;;;;;20.50;36.45;99266.95;2159933;82;21961;-83
2022/09/01 12:05:58;;;;;;;2.35;0.75;;;;;;;20.67;35.90;99273.20;2170589;81;21031;-85
2022/09/01 12:08:54;;;;;;;0.60;0.60;;;;;;;20.94;35.79;99264.66;2177842;81;21102;-83
2022/09/01 12:11:57;;;;;;;3.70;0.85;;;;;;;20.91;34.55;99260.74;2186684;81;21075;-82
2022/09/01 12:14:57;;;;;;;21.87;2.37;;;;;;;20.73;36.90;99271.75;2187014;81;20984;-83
2022/09/01 12:17:58;;;;;;;1.45;0.70;;;;;;;20.33;37.77;99267.72;2186765;81;20963;-84
2022/09/01 12:21:00;;;;;;;1.27;0.62;;;;;;;20.34;38.79;99262.84;2187181;81;20958;-84
2022/09/01 12:24:00;;;;;;;16.42;2.17;;;;;;;20.45;36.69;99261.33;2171327;81;21245;-85
2022/09/01 12:27:01;;;;;;;11.60;1.60;;;;;;;20.56;36.72;99256.66;2186462;81;21482;-83
2022/09/01 12:30:01;;;;;;;0.72;0.72;;;;;;;20.97;38.05;99249.11;2186672;81;20972;-84
2022/09/01 12:33:02;;;;;;;0.62;0.50;;;;;;;21.50;37.71;99250.92;2186649;81;20984;-83
2022/09/01 12:36:02;;;;;;;0.70;0.70;;;;;;;21.44;36.96;99253.28;2186722;81;21465;-84
2022/09/01 12:39:02;;;;;;;2.92;0.98;;;;;;;21.06;37.13;99255.53;2186517;81;21059;-83
2022/09/01 12:42:03;;;;;;;2.17;0.80;;;;;;;20.96;38.54;99245.59;2186531;81;21015;-83
2022/09/01 12:45:03;;;;;;;0.40;0.40;;;;;;;21.12;38.69;99247.42;2187493;81;21019;-82
2022/09/01 12:48:04;;;;;;;11.95;1.55;;;;;;;20.62;39.08;99252.09;2187160;81;21030;-84
2022/09/01 12:51:04;;;;;;;12.73;1.25;;;;;;;19.95;40.19;99267.17;2186711;81;21035;-77
2022/09/01 12:54:04;;;;;;;2.72;0.60;;;;;;;19.60;41.41;99260.72;2187121;81;21023;-84
2022/09/01 12:57:05;;;;;;;1.30;0.62;;;;;;;19.78;41.74;99259.96;2188483;81;20964;-84
2022/09/01 13:00:06;;;;;;;0.50;0.50;;;;;;;20.04;41.23;99255.94;2187447;81;21002;-80
2022/09/01 13:03:06;;;;;;;0.60;0.60;;;;;;;20.30;40.19;99243.48;2187007;81;20999;-80
2022/09/01 13:06:06;;;;;;;2.77;0.65;;;;;;;20.64;40.06;99230.84;2186146;81;20972;-80
2022/09/01 13:09:07;;;;;;;0.50;0.50;;;;;;;20.90;38.97;99234.25;2185589;81;21114;-79
2022/09/01 13:12:07;;;;;;;1.42;0.57;;;;;;;21.08;35.69;99239.56;2184822;81;21866;-79
2022/09/01 13:15:07;;;;;;;0.98;0.60;;;;;;;21.18;37.13;99233.13;2183763;81;21016;-79
2022/09/01 13:18:08;;;;;;;1.90;0.80;;;;;;;21.36;37.12;99230.48;2185173;81;21023;-79
2022/09/01 13:21:08;;;;;;;1.40;0.80;;;;;;;21.56;36.98;99233.50;2184823;81;20987;-80
2022/09/01 13:24:08;;;;;;;1.35;0.60;;;;;;;21.65;37.58;99227.94;2184165;81;20984;-79
2022/09/01 13:27:13;;;;;;;2.22;0.70;;;;;;;21.74;38.08;99232.17;2186407;81;20941;-79
2022/09/01 13:30:12;;;;;;;1.50;1.07;;;;;;;21.52;38.32;99238.48;2170638;81;21015;-79
2022/09/01 13:33:12;;;;;;;1.30;0.70;;;;;;;21.38;38.43;99233.52;2186213;81;20948;-79
2022/09/01 13:36:12;;;;;;;0.95;0.65;;;;;;;21.53;38.21;99239.77;2186358;81;21030;-79
2022/09/01 13:39:15;;;;;;;0.55;0.50;;;;;;;21.66;38.11;99232.34;2185530;81;21961;-81
2022/09/01 13:42:15;;;;;;;34.48;3.33;;;;;;;21.65;36.86;99243.01;2170805;81;21218;-79
2022/09/01 13:45:17;;;;;;;0.88;0.80;;;;;;;21.54;36.89;99235.33;2186969;81;21014;-79
2022/09/01 13:48:16;;;;;;;1.02;0.90;;;;;;;21.47;37.56;99234.61;2185441;81;21411;-79
2022/09/01 13:51:16;;;;;;;3.47;0.70;;;;;;;21.61;38.04;99222.30;2185621;81;21031;-80
2022/09/01 13:54:16;;;;;;;0.57;0.57;;;;;;;21.61;36.94;99233.80;2185482;81;21021;-80
2022/09/01 13:57:17;;;;;;;0.80;0.80;;;;;;;21.28;38.16;99242.63;2184693;81;22049;-80
2022/09/01 14:00:17;;;;;;;3.10;1.02;;;;;;;20.80;38.74;99249.48;2185816;81;21054;-79
2022/09/01 14:03:18;;;;;;;0.95;0.50;;;;;;;20.41;39.99;99251.69;2187878;81;21004;-80
2022/09/01 14:06:18;;;;;;;9.55;1.50;;;;;;;20.11;41.49;99255.36;2188433;81;20987;-80
2022/09/01 14:09:19;;;;;;;3.37;1.52;;;;;;;19.92;42.24;99256.59;2188659;81;21004;-80
2022/09/01 14:12:19;;;;;;;2.77;1.27;;;;;;;19.78;42.72;99264.81;2189347;81;20989;-81